Time;durP1;ratioP1;P1;durP2;ratioP2;P2;SDS_P1;SDS_P2;PMS_P1;PMS_P2;Temp;Humidity;BMP_temperature;BMP_pressure;BME280_temperature;BME280_humidity;BME280_pressure;Samples;Min_cycle;Max_cycle;Signal;HPM_P1;HPM_P2
2021/09/07 00:02:16;;;;;;;5.78;0.70;;;13.10;69.70;;;;;;5029768;28;20111;-76
2021/09/07 00:04:43;;;;;;;2.33;1.02;;;13.10;69.70;;;;;;5029285;28;20048;-75
2021/09/07 00:07:09;;;;;;;0.65;0.55;;;13.10;69.70;;;;;;5027642;28;20025;-72
2021/09/07 00:09:36;;;;;;;1.10;0.80;;;13.00;69.50;;;;;;5029353;28;20043;-70
2021/09/07 00:12:03;;;;;;;3.33;0.98;;;13.10;69.40;;;;;;5027926;28;20101;-74
2021/09/07 00:14:29;;;;;;;2.83;0.75;;;13.00;69.20;;;;;;5026605;28;20037;-71
2021/09/07 00:16:56;;;;;;;1.10;0.60;;;13.00;68.90;;;;;;5027612;28;20014;-71
2021/09/07 00:19:22;;;;;;;2.58;0.90;;;13.00;68.90;;;;;;5028529;28;20026;-70
2021/09/07 00:21:48;;;;;;;1.33;0.73;;;13.00;69.10;;;;;;5029573;28;20384;-73
2021/09/07 00:24:18;;;;;;;1.42;0.93;;;13.00;69.10;;;;;;5028454;28;20053;-71
2021/09/07 00:26:45;;;;;;;1.58;1.05;;;13.00;69.00;;;;;;5027775;28;20040;-71
2021/09/07 00:29:11;;;;;;;1.65;0.68;;;13.00;69.20;;;;;;5026038;28;20021;-71
2021/09/07 00:31:38;;;;;;;3.03;0.55;;;13.00;69.20;;;;;;5028149;28;20017;-75
2021/09/07 00:34:04;;;;;;;1.83;1.02;;;13.10;69.50;;;;;;5026385;28;20075;-72
2021/09/07 00:36:30;;;;;;;3.50;0.73;;;13.00;69.50;;;;;;5029122;28;20526;-72
2021/09/07 00:38:57;;;;;;;4.38;0.85;;;13.00;69.70;;;;;;5028991;28;20492;-77
2021/09/07 00:41:23;;;;;;;6.97;0.85;;;13.00;69.80;;;;;;5026314;28;20520;-71
2021/09/07 00:43:50;;;;;;;3.95;1.17;;;13.00;69.80;;;;;;5027971;28;20013;-71
2021/09/07 00:46:16;;;;;;;2.10;0.68;;;13.00;70.00;;;;;;5027640;28;20122;-71
2021/09/07 00:48:43;;;;;;;3.60;1.85;;;13.00;70.00;;;;;;5028525;28;20044;-70
2021/09/07 00:51:10;;;;;;;2.28;0.50;;;13.00;70.00;;;;;;5028569;28;20032;-76
2021/09/07 00:53:39;;;;;;;1.58;0.75;;;13.00;70.00;;;;;;5028750;28;20472;-72
2021/09/07 00:56:06;;;;;;;3.28;0.75;;;13.00;70.10;;;;;;5026679;28;20079;-71
2021/09/07 00:58:36;;;;;;;2.72;1.33;;;13.00;70.60;;;;;;5028792;28;20040;-77
2021/09/07 01:01:03;;;;;;;2.20;1.77;;;12.90;70.70;;;;;;5025526;28;20106;-72
2021/09/07 01:04:09;;;;;;;2.30;1.80;;;12.90;70.80;;;;;;5021590;28;20034;-72
2021/09/07 01:06:35;;;;;;;6.00;2.75;;;12.90;71.00;;;;;;5029302;28;20349;-71
2021/09/07 01:09:02;;;;;;;5.55;3.65;;;12.90;70.90;;;;;;5027259;28;20036;-74
2021/09/07 01:11:29;;;;;;;6.10;4.55;;;12.90;71.00;;;;;;5028029;28;20034;-71
2021/09/07 01:13:55;;;;;;;7.65;3.67;;;12.80;71.00;;;;;;5027393;28;20380;-71
2021/09/07 01:16:23;;;;;;;3.85;1.95;;;12.80;71.00;;;;;;5025074;28;20020;-70
2021/09/07 01:18:49;;;;;;;2.60;1.48;;;12.80;71.00;;;;;;5028438;28;20508;-71
2021/09/07 01:21:17;;;;;;;4.65;1.60;;;12.80;70.80;;;;;;5024663;28;20434;-71
2021/09/07 01:23:46;;;;;;;3.20;1.15;;;12.80;70.60;;;;;;5028134;28;20507;-71
2021/09/07 01:26:18;;;;;;;4.72;1.27;;;12.80;70.20;;;;;;5027862;28;20075;-70
2021/09/07 01:28:46;;;;;;;2.38;1.02;;;12.80;69.90;;;;;;5028088;28;20025;-71
2021/09/07 01:31:12;;;;;;;4.40;1.88;;;12.80;69.70;;;;;;5024366;28;20025;-71
2021/09/07 01:33:40;;;;;;;2.80;1.63;;;12.80;69.70;;;;;;5026794;28;20040;-71
2021/09/07 01:36:06;;;;;;;5.70;0.95;;;12.70;69.50;;;;;;5027616;28;20020;-72
2021/09/07 01:38:34;;;;;;;3.15;0.95;;;12.70;69.40;;;;;;5022671;28;20041;-70
2021/09/07 01:41:02;;;;;;;5.97;1.48;;;12.80;69.10;;;;;;5026357;28;20479;-72
2021/09/07 01:43:29;;;;;;;4.55;0.90;;;12.70;69.30;;;;;;5029919;28;20030;-71
2021/09/07 01:45:56;;;;;;;3.45;0.73;;;12.80;69.20;;;;;;5027662;28;20025;-71
2021/09/07 01:48:25;;;;;;;2.30;1.23;;;12.80;69.20;;;;;;5024262;28;20018;-72
2021/09/07 01:50:52;;;;;;;1.63;0.50;;;12.80;69.00;;;;;;5027930;28;20043;-70
2021/09/07 01:53:19;;;;;;;5.32;0.70;;;12.80;69.00;;;;;;5027090;28;20492;-71
2021/09/07 01:55:46;;;;;;;1.70;0.70;;;12.80;68.80;;;;;;5024183;28;20041;-71
2021/09/07 01:58:13;;;;;;;2.10;0.88;;;12.90;68.70;;;;;;5025949;28;20032;-71
2021/09/07 02:00:39;;;;;;;3.08;0.68;;;12.80;68.60;;;;;;5028707;28;20507;-70
2021/09/07 02:03:06;;;;;;;2.28;0.63;;;12.80;68.90;;;;;;5027603;28;20017;-71
2021/09/07 02:05:32;;;;;;;2.83;0.50;;;12.80;69.20;;;;;;5029236;28;20496;-70
2021/09/07 02:07:59;;;;;;;2.33;0.50;;;12.80;69.20;;;;;;5023355;28;20492;-72
2021/09/07 02:10:25;;;;;;;2.25;0.35;;;12.80;69.30;;;;;;5029004;28;20372;-74
2021/09/07 02:12:52;;;;;;;2.05;0.30;;;12.90;69.40;;;;;;5023908;28;20018;-70
2021/09/07 02:15:18;;;;;;;3.03;0.60;;;12.80;69.30;;;;;;5026992;28;20022;-71
2021/09/07 02:17:45;;;;;;;4.75;0.90;;;12.90;69.10;;;;;;5027434;28;20409;-70
2021/09/07 02:20:12;;;;;;;0.85;0.85;;;12.90;68.90;;;;;;5026452;28;20120;-70
2021/09/07 02:22:40;;;;;;;1.15;0.32;;;12.90;68.90;;;;;;5027811;28;20025;-72
2021/09/07 02:25:08;;;;;;;1.55;0.30;;;12.90;69.10;;;;;;5025745;28;20353;-71
2021/09/07 02:27:35;;;;;;;1.77;0.45;;;12.90;69.10;;;;;;5028119;28;20100;-71
2021/09/07 02:30:02;;;;;;;3.35;1.40;;;12.90;69.40;;;;;;5024796;28;20123;-71
2021/09/07 02:32:29;;;;;;;1.98;0.60;;;12.90;69.60;;;;;;5024511;28;20025;-71
2021/09/07 02:34:57;;;;;;;1.10;0.80;;;12.90;69.70;;;;;;5027261;28;20491;-71
2021/09/07 02:37:23;;;;;;;1.15;0.50;;;12.90;69.90;;;;;;5023874;28;20032;-71
2021/09/07 02:39:50;;;;;;;2.70;0.80;;;12.90;70.20;;;;;;5029621;28;20037;-71
2021/09/07 02:42:16;;;;;;;4.00;0.60;;;12.90;70.30;;;;;;5024654;28;20021;-73
2021/09/07 02:44:43;;;;;;;3.63;0.98;;;12.80;70.30;;;;;;5025634;28;20392;-72
2021/09/07 02:47:09;;;;;;;4.45;0.60;;;12.80;70.30;;;;;;5027366;28;20430;-71
2021/09/07 02:49:36;;;;;;;2.65;0.63;;;12.90;70.60;;;;;;5022865;28;20018;-70
2021/09/07 02:52:03;;;;;;;4.43;0.95;;;12.80;70.60;;;;;;5027247;28;20017;-70
2021/09/07 02:54:29;;;;;;;4.63;1.15;;;12.80;70.70;;;;;;5026759;28;20136;-70
2021/09/07 02:56:56;;;;;;;3.25;0.88;;;12.80;70.80;;;;;;5025690;28;20057;-70
2021/09/07 02:59:22;;;;;;;3.20;0.75;;;12.80;70.70;;;;;;5025347;28;20385;-70
2021/09/07 03:01:49;;;;;;;1.60;0.75;;;12.70;70.70;;;;;;5028604;28;20017;-70
2021/09/07 03:04:15;;;;;;;1.73;0.60;;;12.70;70.60;;;;;;5024608;28;20022;-70
2021/09/07 03:06:43;;;;;;;5.07;1.23;;;12.70;70.90;;;;;;5025728;28;20018;-70
2021/09/07 03:09:09;;;;;;;3.78;0.80;;;12.60;71.00;;;;;;5023806;28;20469;-70
2021/09/07 03:11:36;;;;;;;1.08;0.60;;;12.60;71.00;;;;;;5027553;28;20370;-75
2021/09/07 03:14:02;;;;;;;2.22;0.68;;;12.60;71.20;;;;;;5025978;28;20025;-71
2021/09/07 03:16:33;;;;;;;4.55;1.80;;;12.50;71.20;;;;;;5025808;28;20018;-71
2021/09/07 03:19:01;;;;;;;1.23;0.50;;;12.50;71.40;;;;;;5026520;28;20112;-74
2021/09/07 03:21:28;;;;;;;3.17;0.85;;;12.40;71.70;;;;;;5024208;28;20045;-70
2021/09/07 03:23:54;;;;;;;3.85;0.77;;;12.40;71.80;;;;;;5025320;28;20029;-71
2021/09/07 03:26:21;;;;;;;3.83;0.80;;;12.40;72.00;;;;;;5027587;28;20605;-71
2021/09/07 03:28:47;;;;;;;5.18;1.50;;;12.30;72.00;;;;;;5028773;28;20383;-71
2021/09/07 03:31:14;;;;;;;1.83;1.10;;;12.30;72.20;;;;;;5029123;28;20079;-71
2021/09/07 03:33:40;;;;;;;6.47;1.05;;;12.20;72.30;;;;;;5029203;28;20017;-73
2021/09/07 03:36:07;;;;;;;4.00;1.48;;;12.20;73.00;;;;;;5030191;28;20399;-74
2021/09/07 03:38:33;;;;;;;8.20;1.45;;;12.20;73.00;;;;;;5028374;28;20420;-71
2021/09/07 03:41:00;;;;;;;1.63;0.70;;;12.10;73.00;;;;;;5031095;28;20045;-70
2021/09/07 03:43:26;;;;;;;4.43;1.00;;;12.10;72.80;;;;;;5030812;28;20022;-70
2021/09/07 03:45:53;;;;;;;3.75;1.05;;;12.10;72.80;;;;;;5028969;28;20116;-73
2021/09/07 03:48:19;;;;;;;7.13;1.10;;;12.00;72.70;;;;;;5028540;28;20096;-70
2021/09/07 03:50:46;;;;;;;1.98;0.90;;;12.00;73.00;;;;;;5029619;28;20112;-70
2021/09/07 03:53:12;;;;;;;1.92;0.60;;;12.00;73.00;;;;;;5029720;28;20576;-68
2021/09/07 03:55:39;;;;;;;3.65;1.00;;;11.90;73.20;;;;;;5027619;28;20077;-73
2021/09/07 03:58:06;;;;;;;2.28;0.80;;;11.90;73.00;;;;;;5028361;28;20488;-71
2021/09/07 04:00:32;;;;;;;3.25;0.95;;;11.80;72.80;;;;;;5027723;28;20053;-69
2021/09/07 04:02:59;;;;;;;3.25;1.08;;;11.80;73.00;;;;;;5030153;28;20021;-68
2021/09/07 04:05:25;;;;;;;3.00;1.10;;;11.80;72.90;;;;;;5026437;28;20484;-67
2021/09/07 04:07:52;;;;;;;30.63;19.88;;;11.80;73.00;;;;;;5025646;28;20362;-68
2021/09/07 04:10:18;;;;;;;50.47;34.13;;;11.80;73.00;;;;;;5029307;28;20045;-69
2021/09/07 04:12:45;;;;;;;10.32;8.18;;;11.70;73.10;;;;;;5030447;28;20020;-70
2021/09/07 04:15:11;;;;;;;6.65;2.33;;;11.70;73.30;;;;;;5031577;28;20022;-72
2021/09/07 04:17:38;;;;;;;2.83;1.25;;;11.70;73.20;;;;;;5030164;28;20516;-67
2021/09/07 04:20:44;;;;;;;4.60;0.80;;;11.70;73.10;;;;;;5022054;28;20061;-69
2021/09/07 04:23:50;;;;;;;3.53;1.02;;;11.60;73.20;;;;;;5033591;28;20021;-71
2021/09/07 04:26:58;;;;;;;4.60;1.27;;;11.50;73.20;;;;;;5035890;28;20017;-71
2021/09/07 04:30:04;;;;;;;3.67;1.48;;;11.50;73.40;;;;;;5033824;28;20014;-72
2021/09/07 04:33:10;;;;;;;32.33;17.80;;;11.50;73.10;;;;;;5036821;28;20029;-70
2021/09/07 04:36:19;;;;;;;32.85;20.45;;;11.50;72.90;;;;;;5033804;28;20021;-71
2021/09/07 04:39:25;;;;;;;5.78;4.13;;;11.50;72.80;;;;;;5027162;28;20476;-72
2021/09/07 04:41:52;;;;;;;3.08;1.10;;;11.40;72.40;;;;;;5038663;28;20492;-71
2021/09/07 04:44:21;;;;;;;4.97;1.77;;;11.30;72.50;;;;;;5037647;28;20028;-73
2021/09/07 04:46:47;;;;;;;2.13;0.82;;;11.30;72.60;;;;;;5035570;28;20068;-74
2021/09/07 04:49:14;;;;;;;3.25;1.20;;;11.20;72.90;;;;;;5027373;28;20026;-68
2021/09/07 04:51:41;;;;;;;6.82;2.58;;;11.20;73.00;;;;;;5031957;28;20029;-70
2021/09/07 04:54:07;;;;;;;2.78;1.10;;;11.20;73.30;;;;;;5037203;28;20018;-73
2021/09/07 04:56:34;;;;;;;3.15;1.13;;;11.20;73.60;;;;;;5031334;28;20053;-74
2021/09/07 04:59:00;;;;;;;2.35;0.88;;;11.20;73.80;;;;;;5038363;28;20049;-72
2021/09/07 05:02:06;;;;;;;1.65;0.80;;;11.20;74.00;;;;;;5026860;28;20095;-72
2021/09/07 05:05:12;;;;;;;5.72;1.77;;;11.20;74.20;;;;;;5032096;28;20083;-74
2021/09/07 05:08:18;;;;;;;4.82;1.60;;;11.20;74.50;;;;;;5033906;28;20026;-72
2021/09/07 05:11:24;;;;;;;1.65;1.10;;;11.30;74.70;;;;;;5033653;28;20039;-70
2021/09/07 05:13:59;;;;;;;4.00;0.93;;;11.30;75.00;;;;;;5024946;28;20502;-72
2021/09/07 05:16:26;;;;;;;2.30;1.00;;;11.40;75.10;;;;;;5035322;28;20030;-73
2021/09/07 05:18:52;;;;;;;2.33;1.05;;;11.40;75.20;;;;;;5038438;28;20485;-71
2021/09/07 05:21:19;;;;;;;6.70;1.48;;;11.40;75.00;;;;;;5035221;28;20022;-71
2021/09/07 05:23:45;;;;;;;4.97;1.20;;;11.50;75.40;;;;;;5036471;28;20021;-71
2021/09/07 05:26:12;;;;;;;3.22;1.17;;;11.50;75.40;;;;;;5036618;28;20043;-70
2021/09/07 05:28:38;;;;;;;1.95;1.20;;;11.50;75.40;;;;;;5037871;28;20476;-71
2021/09/07 05:31:05;;;;;;;5.45;1.67;;;11.60;75.50;;;;;;5037980;28;20468;-70
2021/09/07 05:33:31;;;;;;;3.75;1.40;;;11.60;75.40;;;;;;5036420;28;20021;-71
2021/09/07 05:35:58;;;;;;;4.03;1.15;;;11.60;75.60;;;;;;5029649;28;20499;-72
2021/09/07 05:38:24;;;;;;;3.42;1.85;;;11.60;75.70;;;;;;5027422;28;20053;-74
2021/09/07 05:40:53;;;;;;;4.30;1.08;;;11.60;75.80;;;;;;5031012;28;20033;-74
2021/09/07 05:43:19;;;;;;;6.00;1.20;;;11.70;75.80;;;;;;5029167;28;20020;-73
2021/09/07 05:45:46;;;;;;;2.83;1.38;;;11.70;75.90;;;;;;5027960;28;20509;-72
2021/09/07 05:48:12;;;;;;;5.07;1.35;;;11.70;76.10;;;;;;5027198;28;20060;-71
2021/09/07 05:50:39;;;;;;;4.03;1.67;;;11.70;76.20;;;;;;5023317;28;20018;-72
2021/09/07 05:53:05;;;;;;;5.55;1.23;;;11.70;76.50;;;;;;5030115;28;20491;-72
2021/09/07 05:55:32;;;;;;;5.03;1.20;;;11.70;76.50;;;;;;5030561;28;20017;-71
2021/09/07 05:57:58;;;;;;;2.28;0.70;;;11.70;76.70;;;;;;5028530;28;20024;-71
2021/09/07 06:00:25;;;;;;;2.45;1.10;;;11.80;76.80;;;;;;5025116;28;20051;-71
2021/09/07 06:02:54;;;;;;;5.95;1.58;;;11.80;77.10;;;;;;5024951;28;20412;-74
2021/09/07 06:05:21;;;;;;;3.45;1.13;;;11.80;77.20;;;;;;5027175;28;20006;-71
2021/09/07 06:07:48;;;;;;;2.45;1.10;;;11.90;77.20;;;;;;5023611;28;20021;-71
2021/09/07 06:10:14;;;;;;;3.47;1.20;;;11.90;77.10;;;;;;5027245;28;20548;-71
2021/09/07 06:12:41;;;;;;;6.40;1.50;;;11.90;77.20;;;;;;5020235;28;20018;-74
2021/09/07 06:15:08;;;;;;;4.97;1.20;;;11.90;77.00;;;;;;5026091;28;20037;-71
2021/09/07 06:17:35;;;;;;;4.15;1.58;;;12.00;77.00;;;;;;5027101;28;20080;-71
2021/09/07 06:20:01;;;;;;;5.53;2.15;;;12.00;77.00;;;;;;5024330;28;20120;-71
2021/09/07 06:22:28;;;;;;;4.78;2.10;;;12.00;77.00;;;;;;5026203;28;20026;-70
2021/09/07 06:25:34;;;;;;;1.92;1.02;;;12.10;76.80;;;;;;5023720;28;20037;-71
2021/09/07 06:28:40;;;;;;;4.38;1.40;;;12.10;76.70;;;;;;5025444;28;20072;-70
2021/09/07 06:31:46;;;;;;;5.05;1.20;;;12.20;76.70;;;;;;5032688;28;20103;-73
2021/09/07 06:34:53;;;;;;;6.95;3.90;;;12.20;76.50;;;;;;5039024;28;20033;-71
2021/09/07 06:37:59;;;;;;;21.40;13.85;;;12.30;77.30;;;;;;5033379;28;20068;-71
2021/09/07 06:41:07;;;;;;;11.80;5.60;;;12.30;76.60;;;;;;5032715;28;20033;-72
2021/09/07 06:44:13;;;;;;;5.97;2.33;;;12.40;76.50;;;;;;5032938;28;20022;-71
2021/09/07 06:46:39;;;;;;;4.63;2.35;;;12.50;76.20;;;;;;5029282;28;20028;-71
2021/09/07 06:49:06;;;;;;;6.28;1.23;;;12.50;75.80;;;;;;5035557;28;20484;-72
2021/09/07 06:51:33;;;;;;;5.85;2.28;;;12.60;76.10;;;;;;5035017;28;20021;-72
2021/09/07 06:53:59;;;;;;;6.03;1.98;;;12.60;76.00;;;;;;5032286;28;20107;-71
2021/09/07 06:56:26;;;;;;;4.82;1.25;;;12.70;74.90;;;;;;5032237;28;20056;-71
2021/09/07 06:58:52;;;;;;;4.40;1.48;;;12.70;74.60;;;;;;5034426;28;20851;-72
2021/09/07 07:01:19;;;;;;;3.85;1.70;;;12.80;74.60;;;;;;5033799;28;20427;-70
2021/09/07 07:03:45;;;;;;;4.60;1.75;;;12.90;74.40;;;;;;5039645;28;20501;-70
2021/09/07 07:06:12;;;;;;;5.70;1.33;;;12.90;74.40;;;;;;5036827;28;20024;-71
2021/09/07 07:08:38;;;;;;;11.68;6.10;;;13.00;74.30;;;;;;5038095;28;20022;-70
2021/09/07 07:11:05;;;;;;;27.15;20.75;;;13.00;74.20;;;;;;5032490;28;20024;-71
2021/09/07 07:13:31;;;;;;;10.45;5.32;;;13.10;74.00;;;;;;5039796;28;20025;-70
2021/09/07 07:15:58;;;;;;;6.57;2.95;;;13.10;73.70;;;;;;5030947;28;20429;-71
2021/09/07 07:18:24;;;;;;;26.13;15.80;;;13.20;74.00;;;;;;5038114;28;20029;-70
2021/09/07 07:20:51;;;;;;;14.70;8.27;;;13.30;73.70;;;;;;5034816;28;20064;-70
2021/09/07 07:23:17;;;;;;;11.38;3.97;;;13.40;73.60;;;;;;5034038;28;20713;-67
2021/09/07 07:25:44;;;;;;;5.53;2.25;;;13.50;73.40;;;;;;5033658;28;20380;-69
2021/09/07 07:28:10;;;;;;;8.32;2.10;;;13.50;73.40;;;;;;5036102;28;20369;-67
2021/09/07 07:30:36;;;;;;;3.22;1.92;;;13.60;73.90;;;;;;5034261;28;20030;-69
2021/09/07 07:33:03;;;;;;;4.68;1.92;;;13.70;73.90;;;;;;5034189;28;20018;-67
2021/09/07 07:35:30;;;;;;;6.60;1.42;;;13.80;73.60;;;;;;5036294;28;20070;-69
2021/09/07 07:37:56;;;;;;;3.38;1.25;;;13.80;72.60;;;;;;5033608;28;20017;-69
2021/09/07 07:40:24;;;;;;;14.00;2.72;;;13.90;72.40;;;;;;5027364;28;20033;-68
2021/09/07 07:42:50;;;;;;;6.78;2.28;;;14.00;71.80;;;;;;5031135;28;20472;-71
2021/09/07 07:45:17;;;;;;;1.80;1.20;;;14.00;70.80;;;;;;5032677;28;20538;-68
2021/09/07 07:47:44;;;;;;;14.90;10.10;;;14.10;70.80;;;;;;5038717;28;20070;-68
2021/09/07 07:50:11;;;;;;;21.02;12.85;;;14.20;70.50;;;;;;5028111;28;20060;-68
2021/09/07 07:52:38;;;;;;;6.22;4.20;;;14.30;69.70;;;;;;5031575;28;20036;-68
2021/09/07 07:55:04;;;;;;;3.13;1.70;;;14.40;68.80;;;;;;5031256;28;20025;-68
2021/09/07 07:57:31;;;;;;;5.20;1.67;;;14.40;67.50;;;;;;5029139;28;20124;-70
2021/09/07 07:59:57;;;;;;;5.80;1.95;;;14.50;66.40;;;;;;5032137;28;20064;-70
2021/09/07 08:02:24;;;;;;;1.88;1.67;;;14.50;66.20;;;;;;5030166;28;20057;-72
2021/09/07 08:04:50;;;;;;;4.13;3.25;;;14.60;66.00;;;;;;5028225;28;20067;-69
2021/09/07 08:07:17;;;;;;;8.93;4.85;;;14.70;64.90;;;;;;5027040;28;20022;-69
2021/09/07 08:09:44;;;;;;;10.20;5.22;;;14.70;64.00;;;;;;5025362;28;20025;-69
2021/09/07 08:12:10;;;;;;;8.80;2.88;;;14.90;62.30;;;;;;5028917;28;20021;-70
2021/09/07 08:14:37;;;;;;;4.68;2.03;;;14.90;61.40;;;;;;5029168;28;20025;-71
2021/09/07 08:17:03;;;;;;;4.35;1.00;;;15.00;60.80;;;;;;5030656;28;20029;-70
2021/09/07 08:19:30;;;;;;;3.90;1.45;;;15.10;61.20;;;;;;5029905;28;20391;-69
2021/09/07 08:21:57;;;;;;;2.78;0.85;;;15.10;61.10;;;;;;5028256;28;20067;-69
2021/09/07 08:24:24;;;;;;;2.58;0.68;;;15.20;59.10;;;;;;5030531;28;20018;-73
2021/09/07 08:26:50;;;;;;;3.60;2.15;;;15.30;58.10;;;;;;5033306;28;20016;-71
2021/09/07 08:29:17;;;;;;;5.75;4.90;;;15.50;57.30;;;;;;5028345;28;20018;-71
2021/09/07 08:31:43;;;;;;;36.47;26.05;;;15.50;56.00;;;;;;5028586;28;20017;-71
2021/09/07 08:34:10;;;;;;;13.23;9.15;;;15.60;56.70;;;;;;5029142;28;20096;-71
2021/09/07 08:36:36;;;;;;;5.38;2.40;;;15.70;57.10;;;;;;5027035;28;20037;-70
2021/09/07 08:39:05;;;;;;;3.15;1.70;;;15.80;56.80;;;;;;5030915;28;20017;-71
2021/09/07 08:41:31;;;;;;;3.15;0.80;;;15.90;56.90;;;;;;5029437;28;20056;-71
2021/09/07 08:43:58;;;;;;;2.60;0.80;;;15.90;56.40;;;;;;5033523;28;20429;-69
2021/09/07 08:46:24;;;;;;;5.40;4.20;;;16.00;53.70;;;;;;5027840;28;20096;-70
2021/09/07 08:48:51;;;;;;;3.03;2.50;;;16.10;53.50;;;;;;5025023;28;20064;-70
2021/09/07 08:51:22;;;;;;;3.53;1.23;;;16.20;53.50;;;;;;5033026;28;20436;-70
2021/09/07 08:53:49;;;;;;;3.55;1.30;;;16.30;53.10;;;;;;5028549;28;20013;-70
2021/09/07 08:56:15;;;;;;;2.80;0.80;;;16.30;52.10;;;;;;5032255;28;20048;-71
2021/09/07 08:58:42;;;;;;;5.75;4.43;;;16.40;52.20;;;;;;5029545;28;20050;-71
2021/09/07 09:01:13;;;;;;;4.53;2.08;;;16.50;52.80;;;;;;5032938;28;20041;-70
2021/09/07 09:03:44;;;;;;;2.58;0.90;;;16.60;53.00;;;;;;5036954;28;20577;-69
2021/09/07 09:06:11;;;;;;;3.97;0.60;;;16.70;51.80;;;;;;5033270;28;20052;-68
2021/09/07 09:08:39;;;;;;;1.15;0.70;;;16.70;51.00;;;;;;5034209;28;20026;-69
2021/09/07 09:11:08;;;;;;;1.35;0.50;;;16.80;50.70;;;;;;5032259;28;20016;-69
2021/09/07 09:13:47;;;;;;;3.28;0.60;;;16.90;51.40;;;;;;5034507;28;20025;-67
2021/09/07 09:16:17;;;;;;;42.88;7.20;;;17.00;49.90;;;;;;5030105;28;20108;-67
2021/09/07 09:18:48;;;;;;;28.77;3.45;;;17.10;48.80;;;;;;5036555;28;20024;-65
2021/09/07 09:21:27;;;;;;;9.93;2.75;;;17.20;48.00;;;;;;5037447;28;20037;-67
2021/09/07 09:24:17;;;;;;;6.63;1.83;;;17.30;48.60;;;;;;5032084;28;20061;-67
2021/09/07 09:27:11;;;;;;;15.77;1.98;;;17.40;47.80;;;;;;5033961;28;20029;-66
2021/09/07 09:29:40;;;;;;;2.67;0.88;;;17.50;47.40;;;;;;5033769;28;20076;-66
2021/09/07 09:32:16;;;;;;;2.30;0.90;;;17.70;48.40;;;;;;5035559;28;20013;-67
2021/09/07 09:34:43;;;;;;;7.25;1.55;;;17.80;47.50;;;;;;5035447;28;20492;-67
2021/09/07 09:37:49;;;;;;;7.78;1.67;;;17.80;45.70;;;;;;5034047;28;20093;-66
2021/09/07 09:40:55;;;;;;;27.80;20.83;;;18.00;45.90;;;;;;5035748;28;20032;-66
2021/09/07 09:44:04;;;;;;;12.77;9.07;;;18.10;45.40;;;;;;5041874;28;20025;-64
2021/09/07 09:47:10;;;;;;;4.75;2.88;;;18.20;45.40;;;;;;5027044;28;20029;-67
2021/09/07 09:50:13;;;;;;;1.70;1.00;;;18.30;45.60;;;;;;5026799;28;20033;-72
2021/09/07 09:52:44;;;;;;;3.47;1.17;;;18.40;45.20;;;;;;5026285;28;20041;-71
2021/09/07 09:55:13;;;;;;;60.67;48.67;;;18.50;44.60;;;;;;5030263;28;20056;-71
2021/09/07 09:57:41;;;;;;;36.85;24.63;;;18.70;45.70;;;;;;5025698;28;20065;-67
2021/09/07 10:00:10;;;;;;;11.93;3.58;;;18.80;47.30;;;;;;5018681;28;20115;-69
2021/09/07 10:02:37;;;;;;;5.22;1.35;;;19.00;46.70;;;;;;5026110;28;20024;-67
2021/09/07 10:05:07;;;;;;;4.80;0.60;;;19.10;45.30;;;;;;5025932;28;20045;-67
2021/09/07 10:07:34;;;;;;;13.75;3.25;;;19.10;44.20;;;;;;5022855;28;20151;-68
2021/09/07 10:10:01;;;;;;;6.68;1.83;;;19.10;43.80;;;;;;5022448;28;20014;-77
2021/09/07 10:12:52;;;;;;;13.70;2.45;;;19.10;44.00;;;;;;5023977;28;20481;-73
2021/09/07 10:15:55;;;;;;;7.97;1.73;;;19.20;44.70;;;;;;5038575;28;20518;-75
2021/09/07 10:21:09;;;;;;;4.65;0.75;;;19.40;44.10;;;;;;5022515;28;20045;-73
2021/09/07 10:26:40;;;;;;;2.45;0.80;;;19.70;43.20;;;;;;5021496;28;20090;-73
2021/09/07 10:29:26;;;;;;;4.55;1.20;;;19.80;43.60;;;;;;5024668;28;20014;-71
2021/09/07 10:32:41;;;;;;;3.92;0.98;;;19.90;43.60;;;;;;5021327;28;20372;-75
2021/09/07 10:35:47;;;;;;;3.58;1.67;;;20.00;42.50;;;;;;5023318;28;20032;-71
2021/09/07 10:38:14;;;;;;;2.55;1.20;;;20.10;42.60;;;;;;5023118;28;20025;-72
2021/09/07 10:40:50;;;;;;;1.98;1.17;;;20.20;43.20;;;;;;5024244;28;20704;-73
2021/09/07 10:43:58;;;;;;;5.68;1.20;;;20.30;43.80;;;;;;5039328;28;20026;-69
2021/09/07 10:46:57;;;;;;;9.75;0.90;;;20.30;44.10;;;;;;5024365;28;20014;-68
2021/09/07 10:49:45;;;;;;;3.45;0.80;;;20.50;42.10;;;;;;5026033;28;20033;-73
2021/09/07 10:52:17;;;;;;;24.00;3.55;;;20.70;42.60;;;;;;5039372;28;20076;-65
2021/09/07 10:54:53;;;;;;;11.75;1.60;;;20.80;40.60;;;;;;5029523;28;20033;-68
2021/09/07 10:57:35;;;;;;;4.28;0.70;;;20.90;39.80;;;;;;5025289;28;20049;-73
2021/09/07 11:00:21;;;;;;;42.20;6.70;;;20.90;39.40;;;;;;5025272;28;20037;-72
2021/09/07 11:03:06;;;;;;;54.35;9.45;;;20.90;40.30;;;;;;5024193;28;20017;-74
2021/09/07 11:05:44;;;;;;;43.70;4.78;;;21.10;42.80;;;;;;5025411;28;20061;-70
2021/09/07 11:08:12;;;;;;;1.55;1.02;;;21.20;38.80;;;;;;5019455;28;20041;-68
2021/09/07 11:10:48;;;;;;;19.45;11.80;;;21.40;37.30;;;;;;5024121;28;20372;-68
2021/09/07 11:13:25;;;;;;;38.60;30.60;;;21.40;37.90;;;;;;5039349;28;20022;-69
2021/09/07 11:16:31;;;;;;;5.00;2.10;;;21.50;37.30;;;;;;5029273;28;20017;-74
2021/09/07 11:19:37;;;;;;;7.13;1.63;;;21.60;38.10;;;;;;5026498;28;20025;-70
2021/09/07 11:22:46;;;;;;;5.63;1.73;;;21.70;39.60;;;;;;5026425;28;20572;-69
2021/09/07 11:25:52;;;;;;;6.28;2.75;;;21.70;40.10;;;;;;5025011;28;20069;-66
2021/09/07 11:28:58;;;;;;;7.72;3.95;;;21.70;41.10;;;;;;5023704;28;20116;-68
2021/09/07 11:32:04;;;;;;;7.88;4.07;;;21.60;41.50;;;;;;5024904;28;20026;-74
2021/09/07 11:35:25;;;;;;;7.57;2.42;;;21.70;40.70;;;;;;5023275;28;20021;-66
2021/09/07 11:38:31;;;;;;;12.00;4.32;;;21.70;40.20;;;;;;5025535;28;20101;-67
2021/09/07 11:41:40;;;;;;;8.90;3.00;;;21.70;41.70;;;;;;5024174;28;20539;-68
2021/09/07 11:44:46;;;;;;;5.80;1.98;;;21.80;40.40;;;;;;5024467;28;20029;-70
2021/09/07 11:47:52;;;;;;;7.88;1.65;;;21.80;40.40;;;;;;5024047;28;20116;-69
2021/09/07 11:50:58;;;;;;;20.67;3.60;;;21.80;39.70;;;;;;5030304;28;20072;-69
2021/09/07 11:54:04;;;;;;;7.72;3.67;;;22.00;39.40;;;;;;5028897;28;20021;-69
2021/09/07 11:57:13;;;;;;;3.70;1.60;;;22.10;41.10;;;;;;5027157;28;20144;-69
2021/09/07 12:00:19;;;;;;;5.80;1.05;;;22.20;39.40;;;;;;5027834;28;20064;-71
2021/09/07 12:03:28;;;;;;;5.75;1.35;;;22.30;38.20;;;;;;5026387;28;20040;-69
2021/09/07 12:05:57;;;;;;;14.57;2.20;;;22.40;38.60;;;;;;5027225;28;20053;-69
2021/09/07 12:08:34;;;;;;;24.35;4.35;;;22.50;37.70;;;;;;5030939;28;20097;-71
2021/09/07 12:11:01;;;;;;;69.20;11.23;;;22.50;39.50;;;;;;5024302;28;20021;-71
2021/09/07 12:14:25;;;;;;;6.65;1.55;;;22.40;40.50;;;;;;5019332;28;20100;-74
2021/09/07 12:17:32;;;;;;;6.38;2.05;;;22.50;40.50;;;;;;5026758;28;20021;-71
2021/09/07 12:20:38;;;;;;;3.55;0.88;;;22.40;39.20;;;;;;5028617;28;20033;-71
2021/09/07 12:23:49;;;;;;;4.30;0.90;;;22.40;38.50;;;;;;5025628;28;20021;-69
2021/09/07 12:26:58;;;;;;;2.60;0.90;;;22.30;38.10;;;;;;5026702;28;20029;-68
2021/09/07 12:30:04;;;;;;;6.30;1.42;;;22.30;38.90;;;;;;5028209;28;20056;-68
2021/09/07 12:32:50;;;;;;;2.25;0.98;;;22.30;38.60;;;;;;5023603;28;20845;-69
2021/09/07 12:36:11;;;;;;;5.72;1.10;;;22.40;39.50;;;;;;5027103;28;20029;-71
2021/09/07 12:38:39;;;;;;;12.35;2.08;;;22.40;38.00;;;;;;5027353;28;20031;-70
2021/09/07 12:41:15;;;;;;;11.65;2.63;;;22.50;37.10;;;;;;5028437;28;20579;-70
2021/09/07 12:43:47;;;;;;;1.27;0.75;;;22.60;37.00;;;;;;5024775;28;20115;-73
2021/09/07 12:46:19;;;;;;;2.22;0.98;;;22.60;35.90;;;;;;5025881;28;20536;-71
2021/09/07 12:48:48;;;;;;;3.47;2.60;;;22.60;35.40;;;;;;5025209;28;20501;-71
2021/09/07 12:51:17;;;;;;;3.97;1.10;;;22.60;36.40;;;;;;5040808;28;20018;-72
2021/09/07 12:53:45;;;;;;;2.55;0.47;;;22.60;36.10;;;;;;5027120;28;20026;-69
2021/09/07 12:56:19;;;;;;;7.63;1.80;;;22.70;34.70;;;;;;5026369;28;20037;-68
2021/09/07 12:58:54;;;;;;;2.28;1.30;;;22.70;35.20;;;;;;5025402;28;20130;-73
2021/09/07 13:01:23;;;;;;;3.97;1.83;;;22.80;35.90;;;;;;5027343;28;20071;-72
2021/09/07 13:03:50;;;;;;;4.70;2.72;;;22.80;36.00;;;;;;5022174;28;20026;-73
2021/09/07 13:06:18;;;;;;;13.48;3.88;;;22.90;38.10;;;;;;5029215;28;20032;-73
2021/09/07 13:08:45;;;;;;;12.18;4.28;;;22.90;38.90;;;;;;5025793;28;20618;-73
2021/09/07 13:11:13;;;;;;;10.88;4.07;;;22.80;38.70;;;;;;5026762;28;20092;-71
2021/09/07 13:13:41;;;;;;;11.07;4.75;;;22.90;39.00;;;;;;5025886;28;20028;-70
2021/09/07 13:16:09;;;;;;;7.78;3.83;;;22.90;39.40;;;;;;5024470;28;20045;-70
2021/09/07 13:18:36;;;;;;;11.52;3.90;;;22.90;39.40;;;;;;5028588;28;20091;-73
2021/09/07 13:21:08;;;;;;;5.68;3.33;;;22.90;39.40;;;;;;5026702;28;20507;-71
2021/09/07 13:23:35;;;;;;;10.23;4.10;;;22.90;39.20;;;;;;5027197;28;20026;-66
2021/09/07 13:26:01;;;;;;;10.80;3.63;;;22.90;39.40;;;;;;5027704;28;20018;-70
2021/09/07 13:28:28;;;;;;;9.80;3.42;;;22.90;39.50;;;;;;5027221;28;20522;-72
2021/09/07 13:30:54;;;;;;;6.47;3.83;;;22.90;40.20;;;;;;5026129;28;20008;-73